Time;durP1;ratioP1;P1;durP2;ratioP2;P2;SDS_P1;SDS_P2;PMS_P1;PMS_P2;Temp;Humidity;BMP_temperature;BMP_pressure;BME280_temperature;BME280_humidity;BME280_pressure;Samples;Min_cycle;Max_cycle;Signal;HPM_P1;HPM_P2
2023/07/01 00:01:18;;;;;;;3.95;2.28;;;;;;;21.13;30.77;100489.69;5002628;28;20098;-66
2023/07/01 00:03:47;;;;;;;2.33;1.85;;;;;;;21.14;30.77;100493.34;5010862;28;20493;-66
2023/07/01 00:06:15;;;;;;;4.70;2.08;;;;;;;21.12;30.76;100487.13;5015878;28;20117;-68
2023/07/01 00:08:43;;;;;;;4.30;2.13;;;;;;;21.10;30.78;100480.94;5028507;28;20136;-66
2023/07/01 00:11:11;;;;;;;3.88;2.10;;;;;;;21.09;30.84;100482.00;5007822;28;20523;-66
2023/07/01 00:13:40;;;;;;;3.30;1.80;;;;;;;21.08;31.28;100475.56;4999573;28;20132;-68
2023/07/01 00:16:08;;;;;;;4.10;1.90;;;;;;;21.06;31.12;100472.13;5009343;28;20077;-67
2023/07/01 00:18:36;;;;;;;3.22;1.70;;;;;;;21.06;31.41;100474.06;5020458;28;20123;-68
2023/07/01 00:21:05;;;;;;;3.30;1.90;;;;;;;21.07;31.11;100473.84;5029680;28;20501;-67
2023/07/01 00:23:33;;;;;;;3.97;1.98;;;;;;;21.05;30.97;100467.63;5001401;28;20416;-67
2023/07/01 00:26:01;;;;;;;4.88;1.98;;;;;;;21.05;31.08;100466.78;5025934;28;20048;-67
2023/07/01 00:28:29;;;;;;;3.03;1.92;;;;;;;21.04;31.15;100462.28;5021553;28;20111;-67
2023/07/01 00:30:57;;;;;;;2.90;1.70;;;;;;;21.04;30.96;100462.28;4991690;28;20461;-67
2023/07/01 00:33:25;;;;;;;2.90;1.73;;;;;;;21.03;31.01;100461.41;5008208;28;20505;-67
2023/07/01 00:35:53;;;;;;;3.92;2.20;;;;;;;21.03;31.10;100461.41;5009738;28;20369;-67
2023/07/01 00:38:23;;;;;;;3.15;1.80;;;;;;;21.04;31.45;100449.22;5001935;28;20046;-67
2023/07/01 00:40:51;;;;;;;3.28;2.00;;;;;;;21.02;31.17;100453.31;4989681;28;20089;-67
2023/07/01 00:43:19;;;;;;;2.95;1.80;;;;;;;21.02;31.28;100456.09;4992687;28;20073;-67
2023/07/01 00:45:47;;;;;;;3.33;1.90;;;;;;;21.02;31.32;100444.97;5028802;28;20123;-68
2023/07/01 00:48:24;;;;;;;3.47;1.90;;;;;;;21.04;31.43;100446.44;5013327;28;20464;-67
2023/07/01 00:50:52;;;;;;;3.58;2.10;;;;;;;21.00;31.08;100442.41;5009487;28;20073;-67
2023/07/01 00:53:20;;;;;;;3.08;1.70;;;;;;;20.99;31.11;100442.59;5008951;28;20050;-67
2023/07/01 00:55:52;;;;;;;3.95;1.83;;;;;;;21.02;31.20;100439.41;5008701;28;20092;-67
2023/07/01 00:58:20;;;;;;;2.92;2.03;;;;;;;20.98;31.05;100430.63;5014416;28;20054;-67
2023/07/01 01:00:49;;;;;;;3.50;2.00;;;;;;;20.98;31.16;100429.75;5009949;28;20115;-68
2023/07/01 01:03:22;;;;;;;2.90;1.75;;;;;;;21.00;31.17;100422.06;5020281;28;20552;-68
2023/07/01 01:06:00;;;;;;;2.97;2.03;;;;;;;21.00;31.23;100427.63;5024737;28;20041;-68
2023/07/01 01:08:37;;;;;;;3.17;1.77;;;;;;;20.98;30.89;100422.25;5008988;28;20079;-67
2023/07/01 01:11:07;;;;;;;2.83;1.70;;;;;;;20.96;31.07;100420.75;5009197;28;20084;-66
2023/07/01 01:13:36;;;;;;;3.10;1.75;;;;;;;20.95;31.28;100416.25;4998518;28;20046;-67
2023/07/01 01:16:05;;;;;;;3.90;1.70;;;;;;;20.92;31.11;100403.66;5020413;28;20112;-67
2023/07/01 01:18:34;;;;;;;4.05;1.73;;;;;;;20.92;31.30;100405.56;5027931;28;20209;-66
2023/07/01 01:21:04;;;;;;;3.08;1.75;;;;;;;20.90;31.15;100400.22;5021326;28;20053;-66
2023/07/01 01:23:39;;;;;;;2.67;1.70;;;;;;;20.93;31.35;100404.50;5007730;28;20475;-67
2023/07/01 01:26:13;;;;;;;3.70;1.88;;;;;;;20.90;31.25;100399.38;5008902;28;20034;-67
2023/07/01 01:28:43;;;;;;;3.50;2.13;;;;;;;20.89;31.32;100397.66;5007410;28;20053;-67
2023/07/01 01:31:11;;;;;;;3.42;1.92;;;;;;;20.86;31.32;100387.78;4997074;28;20536;-66
2023/07/01 01:33:40;;;;;;;3.63;1.80;;;;;;;20.86;31.26;100390.56;4985891;28;20128;-66
2023/07/01 01:36:10;;;;;;;2.58;1.73;;;;;;;20.87;31.20;100383.94;4983257;28;20037;-65
2023/07/01 01:38:41;;;;;;;3.50;1.70;;;;;;;20.87;31.26;100383.09;5007741;28;20566;-66
2023/07/01 01:41:16;;;;;;;5.10;1.73;;;;;;;20.85;31.29;100380.53;5007116;28;20045;-66
2023/07/01 01:43:49;;;;;;;2.83;1.77;;;;;;;20.84;31.42;100373.28;5014927;28;20049;-69
2023/07/01 01:46:19;;;;;;;3.25;1.90;;;;;;;20.83;31.13;100370.69;5002923;28;20085;-67
2023/07/01 01:48:47;;;;;;;2.55;1.65;;;;;;;20.80;31.20;100369.19;5014520;28;20532;-67
2023/07/01 01:51:17;;;;;;;2.90;1.83;;;;;;;20.81;31.20;100367.25;5007278;28;20052;-67
2023/07/01 01:53:46;;;;;;;3.83;1.58;;;;;;;20.78;31.22;100369.41;5006803;28;20042;-66
2023/07/01 01:56:16;;;;;;;3.30;1.75;;;;;;;20.78;31.16;100360.19;5007973;28;20042;-66
2023/07/01 01:58:47;;;;;;;2.40;1.58;;;;;;;20.76;31.25;100354.88;5003973;28;20046;-66
2023/07/01 02:01:15;;;;;;;2.88;1.67;;;;;;;20.75;31.23;100357.84;5006988;28;20581;-66
2023/07/01 02:03:44;;;;;;;3.03;1.83;;;;;;;20.75;31.30;100352.28;5003015;28;20093;-66
2023/07/01 02:06:13;;;;;;;3.25;1.83;;;;;;;20.73;31.30;100355.28;4986544;28;20516;-67
2023/07/01 02:08:41;;;;;;;3.47;1.90;;;;;;;20.73;31.33;100340.53;5001485;28;20100;-66
2023/07/01 02:11:09;;;;;;;3.53;1.75;;;;;;;20.72;31.26;100345.22;5010378;28;20038;-67
2023/07/01 02:13:37;;;;;;;2.25;1.40;;;;;;;20.72;31.25;100338.81;5023892;28;20425;-66
2023/07/01 02:16:06;;;;;;;3.33;1.75;;;;;;;20.73;31.29;100332.19;4993629;28;20088;-66
2023/07/01 02:18:34;;;;;;;2.63;1.70;;;;;;;20.70;31.38;100336.22;4993207;28;20442;-66
2023/07/01 02:21:04;;;;;;;3.72;1.60;;;;;;;20.70;31.34;100333.44;5012999;28;20521;-66
2023/07/01 02:23:32;;;;;;;2.60;1.75;;;;;;;20.69;31.48;100325.34;5017828;28;20054;-66
2023/07/01 02:25:59;;;;;;;3.40;1.77;;;;;;;20.68;31.20;100327.28;5012218;28;20073;-66
2023/07/01 02:28:27;;;;;;;3.60;1.90;;;;;;;20.69;31.50;100330.91;5012788;28;20053;-66
2023/07/01 02:30:55;;;;;;;3.03;1.70;;;;;;;20.69;31.27;100325.34;5010901;28;20500;-67
2023/07/01 02:33:24;;;;;;;2.88;1.80;;;;;;;20.71;31.19;100320.41;5025944;28;20131;-66
2023/07/01 02:35:52;;;;;;;3.28;1.70;;;;;;;20.68;31.09;100323.63;5011546;28;20092;-66
2023/07/01 02:38:20;;;;;;;2.75;1.90;;;;;;;20.67;31.20;100322.78;5017667;28;20046;-67
2023/07/01 02:40:48;;;;;;;2.75;1.65;;;;;;;20.66;31.14;100314.63;4993429;28;20587;-67
2023/07/01 02:43:17;;;;;;;2.47;1.58;;;;;;;20.66;31.38;100314.63;5019394;28;20145;-66
2023/07/01 02:45:45;;;;;;;2.88;1.70;;;;;;;20.64;31.27;100317.63;5011055;28;20058;-67
2023/07/01 02:48:13;;;;;;;2.63;1.70;;;;;;;20.63;31.21;100323.41;4993279;28;20046;-66
2023/07/01 02:50:42;;;;;;;2.45;1.60;;;;;;;20.65;31.41;100312.94;5019642;28;20037;-67
2023/07/01 02:53:10;;;;;;;2.58;1.70;;;;;;;20.61;31.46;100320.81;5011484;28;20053;-67
2023/07/01 02:55:38;;;;;;;2.83;1.80;;;;;;;20.62;31.56;100313.34;5011632;28;20042;-67
2023/07/01 02:58:06;;;;;;;2.75;1.88;;;;;;;20.60;31.30;100319.16;5027735;28;20053;-66
2023/07/01 03:00:34;;;;;;;2.90;1.70;;;;;;;20.60;31.10;100321.91;5011920;28;20145;-67
2023/07/01 03:03:06;;;;;;;3.08;1.55;;;;;;;20.59;31.00;100316.56;5009165;28;20096;-66
2023/07/01 03:05:35;;;;;;;;;;;;;;;20.30;31.71;100320.56;5006948;28;20126;-67
2023/07/01 03:08:05;;;;;;;3.40;1.80;;;;;;;20.56;31.42;100317.81;4995293;28;19936;-66
2023/07/01 03:10:33;;;;;;;3.10;1.60;;;;;;;20.56;31.40;100320.59;5010948;28;20133;-66
2023/07/01 03:13:01;;;;;;;3.03;1.52;;;;;;;20.57;31.18;100322.31;5010231;28;20046;-66
2023/07/01 03:15:29;;;;;;;2.90;1.70;;;;;;;20.57;31.26;100321.44;5009142;28;20500;-66
2023/07/01 03:17:57;;;;;;;3.60;1.95;;;;;;;20.57;31.41;100318.66;5012833;28;20053;-67
2023/07/01 03:20:25;;;;;;;3.30;2.00;;;;;;;20.56;31.28;100309.47;5010762;28;20042;-66
2023/07/01 03:22:56;;;;;;;2.88;1.90;;;;;;;20.57;31.58;100315.88;5009889;28;20105;-68
2023/07/01 03:25:27;;;;;;;2.72;1.80;;;;;;;20.57;31.19;100302.00;5017103;28;20113;-67
2023/07/01 03:27:55;;;;;;;2.95;1.70;;;;;;;20.56;31.29;100305.81;5027664;28;20053;-66
2023/07/01 03:30:30;;;;;;;3.78;1.77;;;;;;;20.58;30.84;100295.34;5011168;28;20563;-66
2023/07/01 03:32:59;;;;;;;3.80;1.88;;;;;;;20.55;31.36;100298.56;4991067;28;20053;-67
2023/07/01 03:35:27;;;;;;;2.85;1.70;;;;;;;20.53;31.36;100298.75;5011443;28;20278;-66
2023/07/01 03:37:55;;;;;;;4.00;1.70;;;;;;;20.54;31.32;100299.63;5010301;28;20558;-67
2023/07/01 03:40:23;;;;;;;2.72;1.60;;;;;;;20.53;31.31;100300.72;4995072;28;20121;-66
2023/07/01 03:42:52;;;;;;;2.88;1.77;;;;;;;20.54;31.09;100294.91;5006360;28;20103;-67
2023/07/01 03:45:20;;;;;;;3.28;1.80;;;;;;;20.51;30.79;100284.25;5006636;28;20050;-67
2023/07/01 03:47:48;;;;;;;2.58;1.63;;;;;;;20.50;31.17;100285.31;5005586;28;20557;-67
2023/07/01 03:50:16;;;;;;;3.28;1.90;;;;;;;20.50;31.26;100285.31;4991161;28;20054;-66
2023/07/01 03:52:44;;;;;;;3.63;1.58;;;;;;;20.48;31.27;100275.47;4990509;28;20042;-66
2023/07/01 03:55:14;;;;;;;2.80;1.58;;;;;;;20.50;31.10;100281.66;4991152;28;20055;-67
2023/07/01 03:57:42;;;;;;;4.13;1.77;;;;;;;20.47;31.22;100274.59;4990404;28;20105;-66
2023/07/01 04:00:17;;;;;;;3.08;1.80;;;;;;;20.48;31.09;100275.47;4990688;28;20046;-66
2023/07/01 04:02:47;;;;;;;2.55;1.85;;;;;;;20.46;30.85;100277.59;5006119;28;20133;-66
2023/07/01 04:05:16;;;;;;;3.00;1.80;;;;;;;20.46;31.38;100264.56;4992915;28;20054;-66
2023/07/01 04:07:47;;;;;;;3.35;1.75;;;;;;;20.47;31.10;100259.84;4996749;28;20058;-67
2023/07/01 04:10:16;;;;;;;3.10;1.65;;;;;;;20.45;31.10;100260.06;5010523;28;20416;-68
2023/07/01 04:12:44;;;;;;;2.83;1.70;;;;;;;20.44;30.91;100257.53;5009743;28;20061;-65
2023/07/01 04:15:13;;;;;;;2.83;1.70;;;;;;;20.45;31.05;100254.50;5010510;28;20042;-68
2023/07/01 04:17:42;;;;;;;3.10;1.90;;;;;;;20.45;31.28;100250.91;5009644;28;20093;-67
2023/07/01 04:20:13;;;;;;;3.05;1.83;;;;;;;20.44;31.27;100249.19;5022030;28;20096;-68
2023/07/01 04:22:41;;;;;;;4.55;1.95;;;;;;;20.42;30.82;100246.59;5029261;28;20140;-68
2023/07/01 04:25:10;;;;;;;3.60;1.70;;;;;;;20.43;31.04;100241.91;5011000;28;20049;-67
2023/07/01 04:27:38;;;;;;;2.95;1.80;;;;;;;20.41;31.20;100239.34;5009825;28;20108;-67
2023/07/01 04:30:07;;;;;;;3.83;1.80;;;;;;;20.42;31.25;100240.19;5030100;28;20084;-67
2023/07/01 04:32:37;;;;;;;2.65;1.85;;;;;;;20.43;31.06;100239.13;5023027;28;20071;-67
2023/07/01 04:35:06;;;;;;;2.60;1.60;;;;;;;20.39;31.43;100233.97;4996357;28;20125;-67
2023/07/01 04:37:34;;;;;;;4.10;1.85;;;;;;;20.39;31.21;100235.91;5001470;28;20129;-67
2023/07/01 04:40:02;;;;;;;3.25;1.80;;;;;;;20.38;31.36;100235.03;5018564;28;20046;-68
2023/07/01 04:42:31;;;;;;;3.67;1.90;;;;;;;20.37;31.39;100230.56;5011200;28;20068;-68
2023/07/01 04:44:59;;;;;;;3.45;1.75;;;;;;;20.36;31.30;100228.88;4990178;28;20046;-68
2023/07/01 04:47:27;;;;;;;3.67;1.75;;;;;;;20.36;31.45;100240.00;5004944;28;20045;-67
2023/07/01 04:49:57;;;;;;;2.40;1.70;;;;;;;20.39;31.21;100224.78;5029646;28;20128;-67
2023/07/01 04:52:25;;;;;;;2.67;1.67;;;;;;;20.37;31.47;100233.34;5014074;28;20060;-67
2023/07/01 04:54:54;;;;;;;4.75;1.85;;;;;;;20.37;31.55;100232.47;5005550;28;20077;-67
2023/07/01 04:57:22;;;;;;;4.07;1.80;;;;;;;20.36;31.48;100223.31;5020498;28;20067;-67
2023/07/01 04:59:49;;;;;;;3.72;2.10;;;;;;;20.36;31.24;100220.53;5027657;28;20077;-67
2023/07/01 05:02:18;;;;;;;2.85;1.80;;;;;;;20.36;31.35;100217.75;5014495;28;20085;-67
2023/07/01 05:04:46;;;;;;;3.38;1.85;;;;;;;20.37;31.41;100215.81;5004436;28;20148;-68
2023/07/01 05:07:15;;;;;;;3.80;2.20;;;;;;;20.39;31.38;100210.91;5014699;28;20509;-67
2023/07/01 05:09:43;;;;;;;3.90;1.98;;;;;;;20.37;31.32;100202.75;5009152;28;20081;-68
2023/07/01 05:12:11;;;;;;;4.65;2.05;;;;;;;20.37;31.51;100199.97;5005868;28;20080;-67
2023/07/01 05:14:39;;;;;;;3.00;1.77;;;;;;;20.38;31.65;100196.13;4990165;28;20472;-67
2023/07/01 05:17:08;;;;;;;2.70;1.70;;;;;;;20.40;31.41;100201.50;4996221;28;20142;-67
2023/07/01 05:19:36;;;;;;;3.65;1.90;;;;;;;20.41;31.49;100194.88;5002738;28;20054;-67
2023/07/01 05:22:04;;;;;;;3.30;1.90;;;;;;;20.42;31.43;100202.13;5008527;28;20136;-67
2023/07/01 05:24:33;;;;;;;3.13;1.70;;;;;;;20.46;31.56;100196.97;5006941;28;20108;-68
2023/07/01 05:27:02;;;;;;;3.30;1.80;;;;;;;20.45;31.40;100198.91;5008022;28;20052;-67
2023/07/01 05:29:30;;;;;;;3.15;1.90;;;;;;;20.45;31.45;100195.31;5002351;28;20065;-68
2023/07/01 05:31:58;;;;;;;3.42;1.92;;;;;;;20.45;31.30;100196.13;5005404;28;20049;-68
2023/07/01 05:34:26;;;;;;;2.20;1.50;;;;;;;20.47;31.49;100184.81;5008812;28;20046;-67
2023/07/01 05:36:55;;;;;;;2.85;1.77;;;;;;;20.47;31.24;100190.34;5003644;28;20078;-68
2023/07/01 05:39:23;;;;;;;4.30;1.80;;;;;;;20.48;31.46;100190.16;4996881;28;20446;-68
2023/07/01 05:41:52;;;;;;;4.10;1.83;;;;;;;20.50;31.30;100182.47;5002905;28;20132;-68
2023/07/01 05:44:20;;;;;;;3.67;2.28;;;;;;;20.49;31.40;100188.22;5011937;28;20073;-67
2023/07/01 05:46:48;;;;;;;3.70;1.90;;;;;;;20.49;31.37;100191.88;5014905;23;20061;-73
2023/07/01 05:49:16;;;;;;;3.10;1.80;;;;;;;20.49;31.28;100185.44;5003751;28;20045;-73
2023/07/01 05:51:44;;;;;;;3.05;1.85;;;;;;;20.50;31.19;100189.94;5012274;28;20129;-73
2023/07/01 05:54:12;;;;;;;3.58;1.67;;;;;;;20.51;31.36;100189.72;5010308;28;20117;-73
2023/07/01 05:56:40;;;;;;;3.78;1.90;;;;;;;20.52;31.48;100193.38;5012613;28;20081;-73
2023/07/01 05:59:09;;;;;;;4.13;2.05;;;;;;;20.54;31.56;100185.66;5037025;28;20458;-73
2023/07/01 06:01:37;;;;;;;3.20;1.90;;;;;;;20.52;31.49;100185.03;5045402;28;20080;-73
2023/07/01 06:04:05;;;;;;;3.47;2.08;;;;;;;20.52;31.31;100185.88;5027345;28;20064;-73
2023/07/01 06:06:33;;;;;;;3.60;2.20;;;;;;;20.52;31.46;100179.47;5032077;28;20053;-73
2023/07/01 06:09:01;;;;;;;3.50;1.90;;;;;;;20.52;31.56;100180.31;5048184;23;20174;-76
2023/07/01 06:11:29;;;;;;;3.20;2.10;;;;;;;20.52;31.87;100182.25;5016799;28;20076;-76
2023/07/01 06:13:56;;;;;;;4.30;2.00;;;;;;;20.52;31.97;100185.88;5011337;28;20056;-77
2023/07/01 06:16:26;;;;;;;4.28;1.98;;;;;;;20.56;32.02;100189.06;5027372;28;20049;-80
2023/07/01 06:18:53;;;;;;;4.10;2.05;;;;;;;20.55;32.27;100187.34;5027588;28;20045;-78
2023/07/01 06:21:21;;;;;;;3.63;1.88;;;;;;;20.54;32.41;100189.28;5046028;28;20629;-77
2023/07/01 06:23:49;;;;;;;4.82;2.00;;;;;;;20.55;32.70;100181.78;5058380;28;20069;-77
2023/07/01 06:26:17;;;;;;;3.67;1.83;;;;;;;20.56;32.79;100189.06;5030218;28;20046;-77
2023/07/01 06:28:45;;;;;;;4.05;2.00;;;;;;;20.56;32.87;100189.06;5027536;28;20072;-78
2023/07/01 06:31:13;;;;;;;2.78;1.80;;;;;;;20.55;33.33;100195.69;5040091;28;20059;-78
2023/07/01 06:33:43;;;;;;;4.25;2.15;;;;;;;20.57;33.17;100199.13;5036464;28;20061;-77
2023/07/01 06:36:12;;;;;;;3.70;1.60;;;;;;;20.54;33.26;100200.41;5052377;28;20037;-76
2023/07/01 06:38:41;;;;;;;2.95;1.73;;;;;;;20.53;33.93;100203.41;5047006;28;20121;-76
2023/07/01 06:41:09;;;;;;;3.28;1.75;;;;;;;20.52;34.25;100202.56;5042418;28;20045;-77
2023/07/01 06:43:40;;;;;;;3.75;1.70;;;;;;;20.53;34.62;100198.69;5050518;28;20098;-76
2023/07/01 06:46:08;;;;;;;4.35;1.98;;;;;;;20.49;34.34;100200.19;5026354;28;20052;-78
2023/07/01 06:48:37;;;;;;;2.95;1.83;;;;;;;20.47;34.38;100196.78;5034414;28;20144;-77
2023/07/01 06:51:06;;;;;;;3.50;1.77;;;;;;;20.48;34.63;100186.50;5045795;28;20056;-76
2023/07/01 06:53:34;;;;;;;3.58;1.80;;;;;;;20.43;34.64;100191.88;5041800;28;20528;-76
2023/07/01 06:56:04;;;;;;;3.88;1.70;;;;;;;20.42;34.85;100191.03;5052585;28;20048;-75
2023/07/01 06:58:32;;;;;;;2.45;1.40;;;;;;;20.40;35.14;100195.94;5044007;28;20052;-77
2023/07/01 07:01:00;;;;;;;3.78;1.70;;;;;;;20.37;35.47;100188.88;5035353;28;20139;-76
2023/07/01 07:03:27;;;;;;;3.20;1.60;;;;;;;20.36;35.53;100192.75;5043457;28;20609;-76
2023/07/01 07:05:56;;;;;;;3.47;2.25;;;;;;;20.33;35.34;100187.59;5050312;28;20454;-76
2023/07/01 07:08:25;;;;;;;3.92;1.90;;;;;;;20.33;35.82;100189.53;5032430;28;20300;-76
2023/07/01 07:10:53;;;;;;;3.10;1.58;;;;;;;20.29;36.24;100177.13;5045217;28;20095;-77
2023/07/01 07:13:21;;;;;;;3.80;1.90;;;;;;;20.27;36.14;100182.91;5050678;28;20059;-76
2023/07/01 07:15:48;;;;;;;3.30;1.80;;;;;;;20.26;36.49;100174.78;5049442;28;20091;-76
2023/07/01 07:18:17;;;;;;;3.13;1.70;;;;;;;20.24;36.21;100175.00;5044912;28;20049;-77
2023/07/01 07:20:45;;;;;;;4.20;1.70;;;;;;;20.23;36.27;100172.41;5033160;28;20049;-77
2023/07/01 07:23:14;;;;;;;2.80;1.60;;;;;;;20.22;36.42;100174.34;5051334;28;20068;-76
2023/07/01 07:25:43;;;;;;;3.45;1.83;;;;;;;20.22;36.58;100179.03;5046161;28;20501;-77
2023/07/01 07:28:11;;;;;;;3.20;1.60;;;;;;;20.19;36.49;100176.72;5041010;28;20318;-77
2023/07/01 07:30:39;;;;;;;3.00;1.83;;;;;;;20.18;36.57;100175.84;5043165;28;20040;-77
2023/07/01 07:33:07;;;;;;;3.20;1.90;;;;;;;20.17;36.85;100167.72;5050339;28;20059;-77
2023/07/01 07:35:35;;;;;;;3.92;2.30;;;;;;;20.16;36.94;100175.22;5049414;28;20040;-77
2023/07/01 07:38:06;;;;;;;3.58;1.75;;;;;;;20.15;36.97;100172.63;5054265;28;20507;-77
2023/07/01 07:40:34;;;;;;;4.03;2.13;;;;;;;20.13;37.17;100181.19;5034846;28;20131;-77
2023/07/01 07:43:10;;;;;;;3.75;1.90;;;;;;;20.16;38.07;100175.22;5048225;28;20053;-78
2023/07/01 07:45:38;;;;;;;3.15;1.88;;;;;;;20.12;37.26;100170.31;5049186;28;20044;-78
2023/07/01 07:48:07;;;;;;;3.33;1.90;;;;;;;20.11;37.30;100168.59;5049797;28;20071;-78
2023/07/01 07:50:35;;;;;;;3.60;1.70;;;;;;;20.11;37.37;100177.78;5055119;28;20044;-77
2023/07/01 07:53:04;;;;;;;4.75;1.80;;;;;;;20.10;37.63;100169.66;5050947;28;20049;-78
2023/07/01 07:55:34;;;;;;;4.72;1.90;;;;;;;20.09;37.56;100168.81;5040439;28;20088;-77
2023/07/01 07:58:03;;;;;;;5.57;1.83;;;;;;;20.09;37.90;100176.28;5045656;28;20124;-79
2023/07/01 08:00:32;;;;;;;3.40;1.70;;;;;;;20.09;37.92;100174.34;5023904;28;20087;-77
2023/07/01 08:03:01;;;;;;;4.00;1.80;;;;;;;20.05;37.55;100175.84;5030177;28;20076;-81
2023/07/01 08:05:29;;;;;;;3.40;1.65;;;;;;;20.06;38.01;100162.81;5050365;28;20088;-77
2023/07/01 08:07:57;;;;;;;4.05;1.52;;;;;;;20.06;38.13;100174.78;5029311;28;20041;-78
2023/07/01 08:10:25;;;;;;;3.00;1.52;;;;;;;20.05;38.19;100167.50;5041207;28;20387;-78
2023/07/01 08:12:53;;;;;;;2.80;1.55;;;;;;;20.05;38.07;100170.28;5026459;28;20052;-78
2023/07/01 08:15:21;;;;;;;3.10;1.70;;;;;;;20.06;38.29;100160.03;5042556;28;20638;-78
2023/07/01 08:17:50;;;;;;;2.83;1.60;;;;;;;20.08;38.66;100166.22;5047818;28;20462;-78
2023/07/01 08:20:18;;;;;;;3.13;1.65;;;;;;;20.07;38.51;100164.50;5049139;28;20045;-78
2023/07/01 08:22:46;;;;;;;2.80;1.60;;;;;;;20.06;38.62;100160.88;5052811;28;20132;-78
2023/07/01 08:25:14;;;;;;;3.33;1.90;;;;;;;20.06;38.24;100157.25;5045656;28;20417;-77
2023/07/01 08:27:42;;;;;;;3.00;1.58;;;;;;;20.05;38.53;100153.63;5030620;28;20486;-78
2023/07/01 08:30:11;;;;;;;3.00;1.55;;;;;;;20.04;38.66;100160.22;5044546;28;20224;-78
2023/07/01 08:32:39;;;;;;;3.30;1.60;;;;;;;20.05;38.78;100163.88;5039821;28;20487;-77
2023/07/01 08:35:09;;;;;;;4.03;1.75;;;;;;;20.04;38.83;100160.22;5057438;28;20047;-75
2023/07/01 08:37:37;;;;;;;3.25;1.80;;;;;;;20.01;38.79;100155.97;5052632;28;20049;-77
2023/07/01 08:40:07;;;;;;;3.45;1.80;;;;;;;20.02;38.88;100157.69;5045242;28;20037;-79
2023/07/01 08:42:50;;;;;;;2.40;1.63;;;;;;;20.04;39.54;100159.41;5025065;28;20194;-78
2023/07/01 08:45:21;;;;;;;3.83;1.67;;;;;;;20.03;39.39;100158.56;5044655;28;20441;-77
2023/07/01 08:47:49;;;;;;;2.58;1.52;;;;;;;20.01;38.98;100155.13;5039493;28;20124;-78
2023/07/01 08:50:20;;;;;;;2.33;1.50;;;;;;;20.03;38.99;100150.22;5035794;28;20029;-78
2023/07/01 08:52:53;;;;;;;4.32;1.95;;;;;;;20.04;39.48;100151.06;5039088;28;20296;-76
2023/07/01 08:55:22;;;;;;;3.03;1.73;;;;;;;19.99;39.23;100154.47;5030064;28;20042;-76
2023/07/01 08:57:50;;;;;;;3.75;1.50;;;;;;;20.01;39.11;100160.69;5046799;28;20420;-77
2023/07/01 09:00:18;;;;;;;4.00;1.70;;;;;;;20.00;39.23;100156.19;5040195;28;20037;-76
2023/07/01 09:02:46;;;;;;;2.55;1.55;;;;;;;20.00;39.38;100156.19;5053214;28;20504;-77
2023/07/01 09:05:14;;;;;;;2.80;1.60;;;;;;;19.99;39.66;100147.00;5048179;28;20096;-77
2023/07/01 09:07:43;;;;;;;3.65;1.55;;;;;;;20.00;39.87;100153.41;5046355;28;20052;-76
2023/07/01 09:10:13;;;;;;;3.67;1.70;;;;;;;20.00;39.94;100150.63;5046496;28;20115;-76
2023/07/01 09:12:40;;;;;;;2.50;1.50;;;;;;;19.96;40.34;100155.75;5025143;28;20564;-77
2023/07/01 09:15:09;;;;;;;3.17;1.73;;;;;;;19.97;40.37;100156.59;5048398;28;20049;-76
2023/07/01 09:17:39;;;;;;;2.50;1.48;;;;;;;19.96;40.55;100150.19;5048796;28;21055;-76
2023/07/01 09:20:11;;;;;;;3.28;1.80;;;;;;;19.94;40.94;100145.94;5052451;28;20041;-77
2023/07/01 09:22:41;;;;;;;2.65;1.58;;;;;;;19.90;41.21;100145.47;5052023;28;20182;-76
2023/07/01 09:25:15;;;;;;;3.03;1.60;;;;;;;19.93;41.46;100144.22;5050351;28;20040;-76
2023/07/01 09:27:46;;;;;;;3.13;1.80;;;;;;;19.90;41.46;100137.13;5023812;28;20053;-76
2023/07/01 09:30:25;;;;;;;2.85;1.50;;;;;;;19.92;41.97;100136.97;5024506;28;20075;-77
2023/07/01 09:33:09;;;;;;;3.47;1.63;;;;;;;19.87;41.37;100136.72;5054321;28;20094;-77
2023/07/01 09:35:41;;;;;;;2.70;1.58;;;;;;;19.88;42.51;100125.38;5051117;28;20543;-77
2023/07/01 09:38:09;;;;;;;3.83;1.60;;;;;;;19.85;41.68;100127.75;5049099;28;20053;-77
2023/07/01 09:40:39;;;;;;;4.43;1.75;;;;;;;19.87;41.91;100133.94;5045991;28;20045;-77
2023/07/01 09:43:06;;;;;;;4.95;1.95;;;;;;;19.85;41.84;100131.38;5030203;28;20128;-77
2023/07/01 09:45:34;;;;;;;2.70;1.50;;;;;;;19.84;41.89;100135.22;5045964;28;20041;-77
2023/07/01 09:48:11;;;;;;;2.83;1.70;;;;;;;19.88;42.77;100141.19;5044156;28;20049;-78
2023/07/01 09:50:40;;;;;;;2.25;1.40;;;;;;;19.84;42.03;100132.44;5051950;28;20032;-77
2023/07/01 09:53:19;;;;;;;2.83;1.63;;;;;;;19.87;43.06;100131.16;5048166;28;20049;-78
2023/07/01 09:55:49;;;;;;;2.65;1.67;;;;;;;19.85;42.13;100134.16;5026137;28;20232;-78
2023/07/01 09:58:17;;;;;;;3.00;1.42;;;;;;;19.85;42.70;100127.75;5048037;28;20443;-79
2023/07/01 10:00:46;;;;;;;2.78;1.52;;;;;;;19.84;42.78;100132.44;5036252;28;20069;-79
2023/07/01 10:03:15;;;;;;;2.50;1.63;;;;;;;19.83;42.79;100129.88;5042496;28;20042;-80
2023/07/01 10:05:45;;;;;;;4.03;1.75;;;;;;;19.80;43.23;100131.13;5058878;28;20037;-80
2023/07/01 10:08:13;;;;;;;2.47;1.40;;;;;;;19.76;43.71;100124.31;5028100;28;20057;-80
2023/07/01 10:10:42;;;;;;;2.13;1.27;;;;;;;19.74;43.97;100115.34;5035810;28;20032;-80
2023/07/01 10:13:13;;;;;;;4.25;1.45;;;;;;;19.74;44.48;100120.88;5036516;28;20436;-80
2023/07/01 10:15:44;;;;;;;1.87;1.30;;;;;;;19.69;44.31;100120.69;5035885;28;20518;-80
2023/07/01 10:18:30;;;;;;;1.92;1.30;;;;;;;19.70;46.37;100114.06;5044330;28;20115;-80
2023/07/01 10:21:27;;;;;;;2.25;1.20;;;;;;;19.64;45.69;100104.63;5054258;28;20047;-79
2023/07/01 10:23:57;;;;;;;1.55;1.15;;;;;;;19.60;44.82;100103.38;5040249;28;20099;-80
2023/07/01 10:26:38;;;;;;;2.33;1.20;;;;;;;19.62;45.46;100100.41;5034160;28;20049;-81
2023/07/01 10:29:55;;;;;;;1.90;1.08;;;;;;;19.58;46.63;100101.88;5028993;28;20059;-79
2023/07/01 10:32:31;;;;;;;1.85;1.10;;;;;;;19.57;46.12;100098.22;5053892;28;20128;-80
2023/07/01 10:35:17;;;;;;;1.70;0.90;;;;;;;19.55;46.10;100099.50;5056300;28;20380;-80
2023/07/01 10:38:22;;;;;;;1.88;0.88;;;;;;;19.53;46.57;100101.66;5051015;28;20042;-83
2023/07/01 10:40:51;;;;;;;1.15;0.77;;;;;;;19.51;45.48;100101.88;5051133;28;20041;-81
2023/07/01 10:43:27;;;;;;;1.75;0.90;;;;;;;19.55;47.37;100105.91;5050953;28;20052;-82
2023/07/01 10:46:11;;;;;;;1.17;0.70;;;;;;;19.53;46.65;100108.06;5053747;28;20379;-80
2023/07/01 10:48:41;;;;;;;2.28;1.02;;;;;;;19.50;45.97;100102.06;5051904;28;20053;-80
2023/07/01 10:51:10;;;;;;;1.10;0.70;;;;;;;19.49;46.22;100098.44;5035900;28;20559;-80
2023/07/01 10:54:00;;;;;;;0.50;0.50;;;;;;;19.47;47.45;100099.69;5014530;28;20056;-79
2023/07/01 10:56:29;;;;;;;2.67;0.73;;;;;;;19.47;46.55;100096.94;5047482;28;20444;-80
2023/07/01 10:59:20;;;;;;;1.45;0.80;;;;;;;19.45;48.01;100086.06;5052031;28;20041;-80
2023/07/01 11:01:51;;;;;;;3.17;1.20;;;;;;;19.45;46.84;100091.63;5057839;28;20052;-80
2023/07/01 11:04:20;;;;;;;2.25;1.10;;;;;;;19.43;46.56;100088.19;5068341;28;20124;-80
2023/07/01 11:06:50;;;;;;;1.70;0.90;;;;;;;19.42;46.63;100093.94;5061628;28;20052;-81
2023/07/01 11:09:28;;;;;;;3.58;1.50;;;;;;;19.43;47.77;100090.09;5040480;28;20045;-81
2023/07/01 11:11:57;;;;;;;3.00;0.88;;;;;;;19.38;46.89;100090.72;5031093;28;20044;-81
2023/07/01 11:14:31;;;;;;;1.95;0.93;;;;;;;19.40;47.83;100085.81;5063937;28;20036;-81
2023/07/01 11:17:07;;;;;;;1.50;0.90;;;;;;;19.40;47.92;100085.81;5070729;28;20051;-80
2023/07/01 11:19:36;;;;;;;0.55;0.55;;;;;;;19.36;47.13;100080.91;5042867;28;20045;-80
2023/07/01 11:22:05;;;;;;;0.95;0.60;;;;;;;19.35;47.42;100079.22;5047092;28;20443;-81
2023/07/01 11:24:34;;;;;;;1.25;0.63;;;;;;;19.35;47.39;100088.38;5045330;28;20055;-81
2023/07/01 11:27:05;;;;;;;1.73;1.00;;;;;;;19.33;47.61;100090.50;5033295;28;20049;-82
2023/07/01 11:29:33;;;;;;;1.05;0.60;;;;;;;19.33;47.71;100084.09;5068238;28;20113;-81
2023/07/01 11:32:07;;;;;;;0.85;0.55;;;;;;;19.34;48.31;100083.03;5068460;28;20041;-81
2023/07/01 11:34:35;;;;;;;2.40;0.70;;;;;;;19.29;47.85;100078.13;5046903;28;20488;-80
2023/07/01 11:37:03;;;;;;;1.05;0.70;;;;;;;19.30;48.09;100079.81;5065031;28;20428;-80